»·PEaware :: SKY1022 KCLM-KFHR

SKY1022 :: KCLM-KFHR

FLIGHT INFORMATION

Flight Status: Arrived
Operator:
Sky High Charters
More flights by this operator :: More flights under this callsign
Pilot: Martin A. (6413)
Aircraft: PIPER PA-23-150/160 APACHE
(PA23)
More flights by this aircraft type
Origin: KCLM Fairchild Intl
United States
Destination: KFHR Friday Harbor
United States
More flights between these airports :: More routes between these airports
Route: WATTR7 WATTR
File this flight plan on PilotEdge
Remarks: SCENARIO 3
Altitude:
(Current/Filed)
5,000ft
Speed:
(Current/Filed)
130kts
Departed: 01-Sep-19 11:56 AM
Arrived: 01-Sep-19 12:28 PM
Distance/Time
Traveled:
31nm/0:32
Distance/Time
To Go:
Arrived

Flight Plot

Page will automatically refresh every two minutes.

Flight plan parsing failed; only flown route is shown


Map Options




Map Legend


Flown Route
Filed Route
Departure Airport
Arrival Airport
Navaid (VOR, NDB)
Fix

Horizontal Profiles

Position Reports

Time Latitude Longitude Heading Altitude Ground
Speed
01-Sep-19 11:43 48.117072 -123.500537 104 270ft 0kts
01-Sep-19 11:44 48.117072 -123.500537 104 270ft 0kts
01-Sep-19 11:45 48.117072 -123.500537 104 270ft 0kts
01-Sep-19 11:46 48.117072 -123.500537 104 270ft 0kts
01-Sep-19 11:46 48.117072 -123.500537 104 270ft 0kts
01-Sep-19 11:48 48.117072 -123.500537 104 270ft 0kts
01-Sep-19 11:49 48.117174 -123.500310 9 270ft 3kts
01-Sep-19 11:49 48.117777 -123.499266 103 270ft 7kts
01-Sep-19 11:50 48.117392 -123.495198 93 270ft 11kts
01-Sep-19 11:52 48.116572 -123.490142 100 270ft 10kts
01-Sep-19 11:52 48.116064 -123.487429 101 270ft 0kts
01-Sep-19 11:53 48.116064 -123.487428 101 270ft 0kts
01-Sep-19 11:55 48.116092 -123.486640 16 270ft 3kts
01-Sep-19 11:56 48.121935 -123.511089 294 840ft 96kts
01-Sep-19 11:56 48.137993 -123.534322 0 1250ft 121kts
01-Sep-19 11:57 48.150536 -123.495152 98 1973ft 115kts
01-Sep-19 11:58 48.147889 -123.447468 93 2822ft 114kts
01-Sep-19 11:59 48.146797 -123.399992 90 3669ft 114kts
01-Sep-19 12:00 48.146815 -123.352367 90 4507ft 115kts
01-Sep-19 12:01 48.147013 -123.299108 91 4965ft 137kts
01-Sep-19 12:02 48.146348 -123.239051 93 4980ft 147kts
01-Sep-19 12:03 48.144960 -123.176899 93 4896ft 154kts
01-Sep-19 12:04 48.143247 -123.110511 93 4396ft 161kts
01-Sep-19 12:05 48.140020 -123.043170 93 4030ft 167kts
01-Sep-19 12:06 48.137382 -122.975056 92 4014ft 161kts
01-Sep-19 12:07 48.166309 -122.946149 346 4020ft 151kts
01-Sep-19 12:08 48.208064 -122.955581 348 4017ft 152kts
01-Sep-19 12:09 48.250118 -122.964171 347 4016ft 153kts
01-Sep-19 12:10 48.291843 -122.974195 347 4015ft 154kts
01-Sep-19 12:11 48.334112 -122.984547 347 4013ft 155kts
01-Sep-19 12:12 48.376771 -122.995666 348 4008ft 156kts
01-Sep-19 12:13 48.419740 -123.007685 350 4004ft 157kts
01-Sep-19 12:14 48.463266 -123.016638 355 4000ft 157kts
01-Sep-19 12:15 48.506661 -123.021116 357 3999ft 157kts
01-Sep-19 12:16 48.519890 -122.982849 155 3380ft 148kts
01-Sep-19 12:17 48.489892 -123.013015 190 2564ft 131kts
01-Sep-19 12:18 48.455231 -123.014715 181 2358ft 135kts
01-Sep-19 12:19 48.415721 -123.016682 178 2358ft 146kts
01-Sep-19 12:20 48.384896 -122.976502 135 2362ft 151kts
01-Sep-19 12:21 48.363885 -122.997801 303 2369ft 155kts
01-Sep-19 12:22 48.405649 -123.007147 352 1919ft 151kts
01-Sep-19 12:23 48.439195 -123.014570 349 1019ft 113kts
01-Sep-19 12:24 48.469637 -123.021882 358 522ft 108kts
01-Sep-19 12:25 48.495488 -123.022365 359 542ft 99kts
01-Sep-19 12:26 48.521284 -123.024345 3 116ft 72kts
01-Sep-19 12:27 48.526546 -123.025750 256 115ft 4kts
01-Sep-19 12:28 48.525126 -123.025872 89 115ft 0kts
01-Sep-19 12:29 48.525125 -123.025872 89 115ft 0kts
01-Sep-19 12:30 48.525125 -123.025872 89 115ft 0kts
01-Sep-19 12:31 48.525125 -123.025872 89 115ft 0kts
01-Sep-19 12:32 48.525125 -123.025872 89 115ft 0kts
01-Sep-19 12:33 48.525125 -123.025872 89 115ft 0kts
01-Sep-19 12:34 48.525125 -123.025872 89 115ft 0kts

Navigation Log

Ident Type
Flight plan parsing failed, navigation log unavailable